sensor_id;sensor_type;location;lat;lon;timestamp;P1;durP1;ratioP1;P2;durP2;ratioP2
75050;SDS011;63628;47.656;11.310;2023-07-13T00:00:38;1.30;;;1.10;;
75050;SDS011;63628;47.656;11.310;2023-07-13T00:03:06;2.40;;;1.75;;
75050;SDS011;63628;47.656;11.310;2023-07-13T00:05:33;1.70;;;1.33;;
75050;SDS011;63628;47.656;11.310;2023-07-13T00:07:59;2.55;;;1.13;;
75050;SDS011;63628;47.656;11.310;2023-07-13T00:10:26;3.28;;;1.38;;
75050;SDS011;63628;47.656;11.310;2023-07-13T00:12:53;1.75;;;1.00;;
75050;SDS011;63628;47.656;11.310;2023-07-13T00:15:22;1.00;;;0.90;;
75050;SDS011;63628;47.656;11.310;2023-07-13T00:20:19;1.20;;;1.10;;
75050;SDS011;63628;47.656;11.310;2023-07-13T00:22:48;1.58;;;1.20;;
75050;SDS011;63628;47.656;11.310;2023-07-13T00:25:15;1.20;;;0.90;;
75050;SDS011;63628;47.656;11.310;2023-07-13T00:27:43;1.65;;;1.15;;
75050;SDS011;63628;47.656;11.310;2023-07-13T00:30:10;1.20;;;1.00;;
75050;SDS011;63628;47.656;11.310;2023-07-13T00:32:37;1.42;;;0.93;;
75050;SDS011;63628;47.656;11.310;2023-07-13T00:35:04;0.98;;;0.85;;
75050;SDS011;63628;47.656;11.310;2023-07-13T00:37:33;2.17;;;1.40;;
75050;SDS011;63628;47.656;11.310;2023-07-13T00:40:02;1.73;;;1.30;;
75050;SDS011;63628;47.656;11.310;2023-07-13T00:42:29;1.83;;;0.98;;
75050;SDS011;63628;47.656;11.310;2023-07-13T00:45:06;4.10;;;0.98;;
75050;SDS011;63628;47.656;11.310;2023-07-13T00:47:53;1.27;;;1.00;;
75050;SDS011;63628;47.656;11.310;2023-07-13T00:50:22;1.40;;;1.20;;
75050;SDS011;63628;47.656;11.310;2023-07-13T00:52:52;1.13;;;1.02;;
75050;SDS011;63628;47.656;11.310;2023-07-13T00:55:21;3.55;;;1.45;;
75050;SDS011;63628;47.656;11.310;2023-07-13T00:57:48;2.22;;;1.17;;
75050;SDS011;63628;47.656;11.310;2023-07-13T01:00:15;1.55;;;1.27;;
75050;SDS011;63628;47.656;11.310;2023-07-13T01:02:46;1.90;;;1.20;;
75050;SDS011;63628;47.656;11.310;2023-07-13T01:05:17;3.67;;;1.25;;
75050;SDS011;63628;47.656;11.310;2023-07-13T01:07:45;1.98;;;1.20;;
75050;SDS011;63628;47.656;11.310;2023-07-13T01:10:17;1.20;;;1.10;;
75050;SDS011;63628;47.656;11.310;2023-07-13T01:12:47;1.52;;;1.02;;
75050;SDS011;63628;47.656;11.310;2023-07-13T01:18:00;0.95;;;0.77;;
75050;SDS011;63628;47.656;11.310;2023-07-13T01:20:28;2.35;;;0.90;;
75050;SDS011;63628;47.656;11.310;2023-07-13T01:22:56;1.17;;;1.08;;
75050;SDS011;63628;47.656;11.310;2023-07-13T01:25:23;1.25;;;1.00;;
75050;SDS011;63628;47.656;11.310;2023-07-13T01:27:50;1.60;;;1.20;;
75050;SDS011;63628;47.656;11.310;2023-07-13T01:30:16;1.10;;;0.90;;
75050;SDS011;63628;47.656;11.310;2023-07-13T01:32:43;1.33;;;1.00;;
75050;SDS011;63628;47.656;11.310;2023-07-13T01:35:10;1.75;;;1.15;;
75050;SDS011;63628;47.656;11.310;2023-07-13T01:37:38;1.10;;;1.00;;
75050;SDS011;63628;47.656;11.310;2023-07-13T01:40:07;1.85;;;1.00;;
75050;SDS011;63628;47.656;11.310;2023-07-13T01:42:34;1.30;;;1.10;;
75050;SDS011;63628;47.656;11.310;2023-07-13T01:45:01;1.67;;;1.17;;
75050;SDS011;63628;47.656;11.310;2023-07-13T01:47:28;2.10;;;0.98;;
75050;SDS011;63628;47.656;11.310;2023-07-13T01:49:57;1.05;;;0.80;;
75050;SDS011;63628;47.656;11.310;2023-07-13T01:52:24;1.13;;;1.00;;
75050;SDS011;63628;47.656;11.310;2023-07-13T01:54:50;2.15;;;0.95;;
75050;SDS011;63628;47.656;11.310;2023-07-13T01:57:19;2.95;;;0.93;;
75050;SDS011;63628;47.656;11.310;2023-07-13T01:59:45;3.20;;;1.30;;
75050;SDS011;63628;47.656;11.310;2023-07-13T02:02:12;1.42;;;1.15;;
75050;SDS011;63628;47.656;11.310;2023-07-13T02:04:39;1.15;;;0.95;;
75050;SDS011;63628;47.656;11.310;2023-07-13T02:07:07;1.10;;;1.00;;
75050;SDS011;63628;47.656;11.310;2023-07-13T02:09:34;1.88;;;1.10;;
75050;SDS011;63628;47.656;11.310;2023-07-13T02:12:01;1.27;;;0.80;;
75050;SDS011;63628;47.656;11.310;2023-07-13T02:14:29;0.80;;;0.80;;
75050;SDS011;63628;47.656;11.310;2023-07-13T02:16:56;1.33;;;0.90;;
75050;SDS011;63628;47.656;11.310;2023-07-13T02:19:22;2.15;;;1.13;;
75050;SDS011;63628;47.656;11.310;2023-07-13T02:21:50;1.13;;;0.90;;
75050;SDS011;63628;47.656;11.310;2023-07-13T02:24:17;1.17;;;1.00;;
75050;SDS011;63628;47.656;11.310;2023-07-13T02:26:45;2.43;;;1.17;;
75050;SDS011;63628;47.656;11.310;2023-07-13T02:29:12;0.80;;;0.80;;
75050;SDS011;63628;47.656;11.310;2023-07-13T02:31:40;1.40;;;1.20;;
75050;SDS011;63628;47.656;11.310;2023-07-13T02:34:07;2.67;;;1.35;;
75050;SDS011;63628;47.656;11.310;2023-07-13T02:36:34;2.00;;;0.98;;
75050;SDS011;63628;47.656;11.310;2023-07-13T02:39:01;1.27;;;1.00;;
75050;SDS011;63628;47.656;11.310;2023-07-13T02:41:29;0.95;;;0.95;;
75050;SDS011;63628;47.656;11.310;2023-07-13T02:43:57;1.23;;;0.98;;
75050;SDS011;63628;47.656;11.310;2023-07-13T02:46:29;1.15;;;0.93;;
75050;SDS011;63628;47.656;11.310;2023-07-13T02:48:58;0.95;;;0.90;;
75050;SDS011;63628;47.656;11.310;2023-07-13T02:51:24;2.75;;;1.23;;
75050;SDS011;63628;47.656;11.310;2023-07-13T02:53:51;2.03;;;1.08;;
75050;SDS011;63628;47.656;11.310;2023-07-13T02:56:19;1.25;;;1.00;;
75050;SDS011;63628;47.656;11.310;2023-07-13T02:58:48;1.55;;;1.17;;
75050;SDS011;63628;47.656;11.310;2023-07-13T03:01:14;4.32;;;1.15;;
75050;SDS011;63628;47.656;11.310;2023-07-13T03:03:45;1.50;;;1.23;;
75050;SDS011;63628;47.656;11.310;2023-07-13T03:06:14;1.35;;;0.95;;
75050;SDS011;63628;47.656;11.310;2023-07-13T03:08:41;1.30;;;0.88;;
75050;SDS011;63628;47.656;11.310;2023-07-13T03:11:10;0.73;;;0.70;;
75050;SDS011;63628;47.656;11.310;2023-07-13T03:13:38;0.90;;;0.80;;
75050;SDS011;63628;47.656;11.310;2023-07-13T03:16:06;1.55;;;1.00;;
75050;SDS011;63628;47.656;11.310;2023-07-13T03:18:33;2.95;;;1.35;;
75050;SDS011;63628;47.656;11.310;2023-07-13T03:20:59;1.25;;;0.90;;
75050;SDS011;63628;47.656;11.310;2023-07-13T03:23:27;1.00;;;0.90;;
75050;SDS011;63628;47.656;11.310;2023-07-13T03:26:00;1.05;;;0.70;;
75050;SDS011;63628;47.656;11.310;2023-07-13T03:28:28;3.17;;;1.00;;
75050;SDS011;63628;47.656;11.310;2023-07-13T03:31:02;2.17;;;1.10;;
75050;SDS011;63628;47.656;11.310;2023-07-13T03:33:30;1.10;;;1.00;;
75050;SDS011;63628;47.656;11.310;2023-07-13T03:35:57;1.30;;;0.95;;
75050;SDS011;63628;47.656;11.310;2023-07-13T03:38:24;1.10;;;0.90;;
75050;SDS011;63628;47.656;11.310;2023-07-13T03:40:53;2.17;;;1.48;;
75050;SDS011;63628;47.656;11.310;2023-07-13T03:43:22;1.25;;;1.15;;
75050;SDS011;63628;47.656;11.310;2023-07-13T03:45:49;1.35;;;1.20;;
75050;SDS011;63628;47.656;11.310;2023-07-13T03:48:15;1.27;;;1.05;;
75050;SDS011;63628;47.656;11.310;2023-07-13T03:50:42;1.13;;;1.02;;
75050;SDS011;63628;47.656;11.310;2023-07-13T03:53:09;0.80;;;0.77;;
75050;SDS011;63628;47.656;11.310;2023-07-13T03:55:36;0.80;;;0.80;;
75050;SDS011;63628;47.656;11.310;2023-07-13T04:00:53;1.50;;;0.90;;
75050;SDS011;63628;47.656;11.310;2023-07-13T04:03:19;1.52;;;1.02;;
75050;SDS011;63628;47.656;11.310;2023-07-13T04:05:46;2.50;;;0.90;;
75050;SDS011;63628;47.656;11.310;2023-07-13T04:08:13;1.42;;;0.93;;
75050;SDS011;63628;47.656;11.310;2023-07-13T04:10:40;0.90;;;0.85;;
75050;SDS011;63628;47.656;11.310;2023-07-13T04:13:06;1.27;;;0.90;;
75050;SDS011;63628;47.656;11.310;2023-07-13T04:15:34;1.10;;;1.00;;
75050;SDS011;63628;47.656;11.310;2023-07-13T04:18:03;1.38;;;0.90;;
75050;SDS011;63628;47.656;11.310;2023-07-13T04:20:30;1.02;;;0.93;;
75050;SDS011;63628;47.656;11.310;2023-07-13T04:22:56;1.20;;;0.95;;
75050;SDS011;63628;47.656;11.310;2023-07-13T04:25:24;0.73;;;0.70;;
75050;SDS011;63628;47.656;11.310;2023-07-13T04:27:53;1.67;;;0.90;;
75050;SDS011;63628;47.656;11.310;2023-07-13T04:30:20;1.20;;;0.80;;
75050;SDS011;63628;47.656;11.310;2023-07-13T04:32:49;1.20;;;1.10;;
75050;SDS011;63628;47.656;11.310;2023-07-13T04:37:43;1.10;;;1.00;;
75050;SDS011;63628;47.656;11.310;2023-07-13T04:40:10;1.88;;;0.98;;
75050;SDS011;63628;47.656;11.310;2023-07-13T04:42:38;2.13;;;1.10;;
75050;SDS011;63628;47.656;11.310;2023-07-13T04:45:05;0.88;;;0.85;;
75050;SDS011;63628;47.656;11.310;2023-07-13T04:47:33;0.85;;;0.82;;
75050;SDS011;63628;47.656;11.310;2023-07-13T04:50:01;1.17;;;0.90;;
75050;SDS011;63628;47.656;11.310;2023-07-13T04:52:29;1.27;;;1.02;;
75050;SDS011;63628;47.656;11.310;2023-07-13T04:54:55;2.38;;;1.40;;
75050;SDS011;63628;47.656;11.310;2023-07-13T04:57:22;3.83;;;1.45;;
75050;SDS011;63628;47.656;11.310;2023-07-13T04:59:49;2.33;;;1.48;;
75050;SDS011;63628;47.656;11.310;2023-07-13T05:02:15;1.20;;;1.10;;
75050;SDS011;63628;47.656;11.310;2023-07-13T05:04:45;2.42;;;1.30;;
75050;SDS011;63628;47.656;11.310;2023-07-13T05:07:14;1.30;;;1.17;;
75050;SDS011;63628;47.656;11.310;2023-07-13T05:09:41;1.27;;;1.08;;
75050;SDS011;63628;47.656;11.310;2023-07-13T05:12:08;1.45;;;0.95;;
75050;SDS011;63628;47.656;11.310;2023-07-13T05:14:35;1.08;;;0.98;;
75050;SDS011;63628;47.656;11.310;2023-07-13T05:17:02;1.27;;;1.10;;
75050;SDS011;63628;47.656;11.310;2023-07-13T05:19:29;1.42;;;0.93;;
75050;SDS011;63628;47.656;11.310;2023-07-13T05:21:56;1.02;;;0.93;;
75050;SDS011;63628;47.656;11.310;2023-07-13T05:24:24;1.20;;;1.10;;
75050;SDS011;63628;47.656;11.310;2023-07-13T05:26:51;1.30;;;0.98;;
75050;SDS011;63628;47.656;11.310;2023-07-13T05:29:19;1.75;;;1.00;;
75050;SDS011;63628;47.656;11.310;2023-07-13T05:31:46;1.23;;;1.00;;
75050;SDS011;63628;47.656;11.310;2023-07-13T05:34:13;0.75;;;0.75;;
75050;SDS011;63628;47.656;11.310;2023-07-13T05:36:40;0.90;;;0.90;;
75050;SDS011;63628;47.656;11.310;2023-07-13T05:39:06;1.52;;;0.93;;
75050;SDS011;63628;47.656;11.310;2023-07-13T05:41:35;1.00;;;0.90;;
75050;SDS011;63628;47.656;11.310;2023-07-13T05:44:02;1.08;;;1.08;;
75050;SDS011;63628;47.656;11.310;2023-07-13T05:46:28;0.93;;;0.80;;
75050;SDS011;63628;47.656;11.310;2023-07-13T05:48:55;1.10;;;1.00;;
75050;SDS011;63628;47.656;11.310;2023-07-13T05:51:22;0.90;;;0.80;;
75050;SDS011;63628;47.656;11.310;2023-07-13T05:53:48;2.78;;;1.60;;
75050;SDS011;63628;47.656;11.310;2023-07-13T05:58:47;1.15;;;1.00;;
75050;SDS011;63628;47.656;11.310;2023-07-13T06:01:15;2.45;;;1.52;;
75050;SDS011;63628;47.656;11.310;2023-07-13T06:03:43;3.05;;;1.50;;
75050;SDS011;63628;47.656;11.310;2023-07-13T06:06:10;1.00;;;0.90;;
75050;SDS011;63628;47.656;11.310;2023-07-13T06:08:38;1.20;;;1.10;;
75050;SDS011;63628;47.656;11.310;2023-07-13T06:11:06;1.58;;;0.98;;
75050;SDS011;63628;47.656;11.310;2023-07-13T06:13:34;1.20;;;1.10;;
75050;SDS011;63628;47.656;11.310;2023-07-13T06:16:02;1.40;;;0.90;;
75050;SDS011;63628;47.656;11.310;2023-07-13T06:18:33;1.65;;;1.10;;
75050;SDS011;63628;47.656;11.310;2023-07-13T06:21:01;1.23;;;1.13;;
75050;SDS011;63628;47.656;11.310;2023-07-13T06:23:31;1.30;;;0.80;;
75050;SDS011;63628;47.656;11.310;2023-07-13T06:25:58;1.85;;;1.20;;
75050;SDS011;63628;47.656;11.310;2023-07-13T06:28:25;1.30;;;0.90;;
75050;SDS011;63628;47.656;11.310;2023-07-13T06:30:51;3.80;;;1.00;;
75050;SDS011;63628;47.656;11.310;2023-07-13T06:33:19;1.10;;;1.00;;
75050;SDS011;63628;47.656;11.310;2023-07-13T06:35:46;4.10;;;1.65;;
75050;SDS011;63628;47.656;11.310;2023-07-13T06:38:13;1.60;;;1.27;;
75050;SDS011;63628;47.656;11.310;2023-07-13T06:40:39;1.00;;;0.90;;
75050;SDS011;63628;47.656;11.310;2023-07-13T06:43:06;1.02;;;0.93;;
75050;SDS011;63628;47.656;11.310;2023-07-13T06:45:36;1.20;;;1.10;;
75050;SDS011;63628;47.656;11.310;2023-07-13T06:48:08;1.65;;;1.20;;
75050;SDS011;63628;47.656;11.310;2023-07-13T06:50:36;1.25;;;1.00;;
75050;SDS011;63628;47.656;11.310;2023-07-13T06:53:03;0.80;;;0.80;;
75050;SDS011;63628;47.656;11.310;2023-07-13T06:55:29;1.23;;;1.13;;
75050;SDS011;63628;47.656;11.310;2023-07-13T06:57:56;1.20;;;0.90;;
75050;SDS011;63628;47.656;11.310;2023-07-13T07:00:23;2.63;;;1.80;;
75050;SDS011;63628;47.656;11.310;2023-07-13T07:02:53;2.92;;;2.00;;
75050;SDS011;63628;47.656;11.310;2023-07-13T07:05:20;1.17;;;0.90;;
75050;SDS011;63628;47.656;11.310;2023-07-13T07:07:49;1.55;;;1.10;;
75050;SDS011;63628;47.656;11.310;2023-07-13T07:10:17;1.52;;;1.20;;
75050;SDS011;63628;47.656;11.310;2023-07-13T07:12:44;0.88;;;0.88;;
75050;SDS011;63628;47.656;11.310;2023-07-13T07:15:11;1.27;;;1.05;;
75050;SDS011;63628;47.656;11.310;2023-07-13T07:17:38;1.30;;;1.20;;
75050;SDS011;63628;47.656;11.310;2023-07-13T07:20:05;2.88;;;1.48;;
75050;SDS011;63628;47.656;11.310;2023-07-13T07:22:33;2.97;;;2.40;;
75050;SDS011;63628;47.656;11.310;2023-07-13T07:25:01;2.25;;;1.40;;
75050;SDS011;63628;47.656;11.310;2023-07-13T07:27:28;1.48;;;1.25;;
75050;SDS011;63628;47.656;11.310;2023-07-13T07:29:58;1.70;;;1.30;;
75050;SDS011;63628;47.656;11.310;2023-07-13T07:32:29;1.50;;;1.40;;
75050;SDS011;63628;47.656;11.310;2023-07-13T07:35:16;1.23;;;1.13;;
75050;SDS011;63628;47.656;11.310;2023-07-13T07:37:43;2.00;;;1.50;;
75050;SDS011;63628;47.656;11.310;2023-07-13T07:40:14;1.10;;;1.00;;
75050;SDS011;63628;47.656;11.310;2023-07-13T07:42:44;3.70;;;2.13;;
75050;SDS011;63628;47.656;11.310;2023-07-13T07:45:11;4.15;;;2.05;;
75050;SDS011;63628;47.656;11.310;2023-07-13T07:47:38;4.03;;;2.08;;
75050;SDS011;63628;47.656;11.310;2023-07-13T07:50:05;1.27;;;1.17;;
75050;SDS011;63628;47.656;11.310;2023-07-13T07:52:32;1.10;;;1.00;;
75050;SDS011;63628;47.656;11.310;2023-07-13T07:54:59;3.08;;;2.00;;
75050;SDS011;63628;47.656;11.310;2023-07-13T07:57:30;1.55;;;1.20;;
75050;SDS011;63628;47.656;11.310;2023-07-13T07:59:59;1.80;;;1.20;;
75050;SDS011;63628;47.656;11.310;2023-07-13T08:02:29;1.60;;;1.40;;
75050;SDS011;63628;47.656;11.310;2023-07-13T08:04:58;1.70;;;1.20;;
75050;SDS011;63628;47.656;11.310;2023-07-13T08:07:30;1.23;;;1.13;;
75050;SDS011;63628;47.656;11.310;2023-07-13T08:10:00;1.67;;;1.13;;
75050;SDS011;63628;47.656;11.310;2023-07-13T08:12:26;1.33;;;1.23;;
75050;SDS011;63628;47.656;11.310;2023-07-13T08:14:57;1.92;;;1.75;;
75050;SDS011;63628;47.656;11.310;2023-07-13T08:17:26;2.85;;;1.70;;
75050;SDS011;63628;47.656;11.310;2023-07-13T08:19:53;1.42;;;1.20;;
75050;SDS011;63628;47.656;11.310;2023-07-13T08:22:21;1.40;;;1.30;;
75050;SDS011;63628;47.656;11.310;2023-07-13T08:24:48;1.75;;;1.30;;
75050;SDS011;63628;47.656;11.310;2023-07-13T08:27:21;1.90;;;1.35;;
75050;SDS011;63628;47.656;11.310;2023-07-13T08:29:48;2.30;;;1.58;;
75050;SDS011;63628;47.656;11.310;2023-07-13T08:32:17;3.20;;;1.80;;
75050;SDS011;63628;47.656;11.310;2023-07-13T08:34:44;2.67;;;1.70;;
75050;SDS011;63628;47.656;11.310;2023-07-13T08:37:11;2.75;;;1.63;;
75050;SDS011;63628;47.656;11.310;2023-07-13T08:39:37;1.73;;;1.38;;
75050;SDS011;63628;47.656;11.310;2023-07-13T08:42:05;4.00;;;1.58;;
75050;SDS011;63628;47.656;11.310;2023-07-13T08:44:44;2.80;;;1.63;;
75050;SDS011;63628;47.656;11.310;2023-07-13T08:47:23;6.20;;;1.75;;
75050;SDS011;63628;47.656;11.310;2023-07-13T08:49:51;2.65;;;1.83;;
75050;SDS011;63628;47.656;11.310;2023-07-13T08:52:22;2.13;;;1.42;;
75050;SDS011;63628;47.656;11.310;2023-07-13T08:54:57;3.55;;;1.70;;
75050;SDS011;63628;47.656;11.310;2023-07-13T08:57:32;3.45;;;1.60;;
75050;SDS011;63628;47.656;11.310;2023-07-13T09:00:00;5.63;;;2.20;;
75050;SDS011;63628;47.656;11.310;2023-07-13T09:02:32;3.28;;;1.73;;
75050;SDS011;63628;47.656;11.310;2023-07-13T09:05:08;3.42;;;1.70;;
75050;SDS011;63628;47.656;11.310;2023-07-13T09:07:41;3.67;;;1.40;;
75050;SDS011;63628;47.656;11.310;2023-07-13T09:10:23;1.60;;;1.40;;
75050;SDS011;63628;47.656;11.310;2023-07-13T09:12:57;3.10;;;1.50;;
75050;SDS011;63628;47.656;11.310;2023-07-13T09:15:32;1.73;;;1.60;;
75050;SDS011;63628;47.656;11.310;2023-07-13T09:18:05;2.42;;;1.60;;
75050;SDS011;63628;47.656;11.310;2023-07-13T09:20:37;2.28;;;1.60;;
75050;SDS011;63628;47.656;11.310;2023-07-13T09:23:11;3.58;;;1.58;;
75050;SDS011;63628;47.656;11.310;2023-07-13T09:25:40;1.58;;;1.35;;
75050;SDS011;63628;47.656;11.310;2023-07-13T09:28:14;1.95;;;1.52;;
75050;SDS011;63628;47.656;11.310;2023-07-13T09:30:45;3.53;;;1.60;;
75050;SDS011;63628;47.656;11.310;2023-07-13T09:33:19;1.90;;;1.55;;
75050;SDS011;63628;47.656;11.310;2023-07-13T09:35:46;2.47;;;1.60;;
75050;SDS011;63628;47.656;11.310;2023-07-13T09:38:14;2.55;;;1.50;;
75050;SDS011;63628;47.656;11.310;2023-07-13T09:40:46;2.28;;;1.58;;
75050;SDS011;63628;47.656;11.310;2023-07-13T09:43:23;1.90;;;1.35;;
75050;SDS011;63628;47.656;11.310;2023-07-13T09:45:49;1.63;;;1.10;;
75050;SDS011;63628;47.656;11.310;2023-07-13T09:48:16;3.47;;;1.33;;
75050;SDS011;63628;47.656;11.310;2023-07-13T09:50:45;2.83;;;1.48;;
75050;SDS011;63628;47.656;11.310;2023-07-13T09:53:13;4.00;;;2.27;;
75050;SDS011;63628;47.656;11.310;2023-07-13T09:55:42;2.13;;;1.40;;
75050;SDS011;63628;47.656;11.310;2023-07-13T09:58:10;1.48;;;1.30;;
75050;SDS011;63628;47.656;11.310;2023-07-13T10:00:39;3.63;;;1.50;;
75050;SDS011;63628;47.656;11.310;2023-07-13T10:03:14;2.30;;;1.27;;
75050;SDS011;63628;47.656;11.310;2023-07-13T10:05:46;1.95;;;1.20;;
75050;SDS011;63628;47.656;11.310;2023-07-13T10:08:17;2.63;;;1.40;;
75050;SDS011;63628;47.656;11.310;2023-07-13T10:10:45;1.92;;;1.48;;
75050;SDS011;63628;47.656;11.310;2023-07-13T10:13:28;1.70;;;1.58;;
75050;SDS011;63628;47.656;11.310;2023-07-13T10:15:58;2.10;;;1.40;;
75050;SDS011;63628;47.656;11.310;2023-07-13T10:18:25;1.83;;;1.63;;
75050;SDS011;63628;47.656;11.310;2023-07-13T10:20:58;1.00;;;0.82;;
75050;SDS011;63628;47.656;11.310;2023-07-13T10:24:03;2.13;;;1.30;;
75050;SDS011;63628;47.656;11.310;2023-07-13T10:26:37;2.25;;;1.50;;
75050;SDS011;63628;47.656;11.310;2023-07-13T10:29:10;2.45;;;1.40;;
75050;SDS011;63628;47.656;11.310;2023-07-13T10:31:39;2.47;;;1.48;;
75050;SDS011;63628;47.656;11.310;2023-07-13T10:34:09;3.05;;;1.70;;
75050;SDS011;63628;47.656;11.310;2023-07-13T10:36:40;2.28;;;1.70;;
75050;SDS011;63628;47.656;11.310;2023-07-13T10:39:13;3.55;;;2.65;;
75050;SDS011;63628;47.656;11.310;2023-07-13T10:41:44;5.18;;;2.55;;
75050;SDS011;63628;47.656;11.310;2023-07-13T10:44:18;2.30;;;1.60;;
75050;SDS011;63628;47.656;11.310;2023-07-13T10:46:52;2.35;;;1.40;;
75050;SDS011;63628;47.656;11.310;2023-07-13T10:49:22;3.35;;;1.80;;
75050;SDS011;63628;47.656;11.310;2023-07-13T10:51:51;4.03;;;2.20;;
75050;SDS011;63628;47.656;11.310;2023-07-13T10:54:19;3.47;;;2.10;;
75050;SDS011;63628;47.656;11.310;2023-07-13T10:56:52;4.72;;;2.63;;
75050;SDS011;63628;47.656;11.310;2023-07-13T10:59:34;5.53;;;1.95;;
75050;SDS011;63628;47.656;11.310;2023-07-13T11:02:09;3.95;;;2.63;;
75050;SDS011;63628;47.656;11.310;2023-07-13T11:04:41;5.22;;;2.35;;
75050;SDS011;63628;47.656;11.310;2023-07-13T11:07:18;3.78;;;2.40;;
75050;SDS011;63628;47.656;11.310;2023-07-13T11:09:49;3.00;;;1.90;;
75050;SDS011;63628;47.656;11.310;2023-07-13T11:12:27;2.13;;;1.50;;
75050;SDS011;63628;47.656;11.310;2023-07-13T11:15:26;5.85;;;2.78;;
75050;SDS011;63628;47.656;11.310;2023-07-13T11:17:56;5.10;;;2.15;;
75050;SDS011;63628;47.656;11.310;2023-07-13T11:20:34;3.40;;;2.08;;
75050;SDS011;63628;47.656;11.310;2023-07-13T11:23:09;5.40;;;3.10;;
75050;SDS011;63628;47.656;11.310;2023-07-13T11:25:45;4.30;;;2.17;;
75050;SDS011;63628;47.656;11.310;2023-07-13T11:28:21;2.33;;;1.48;;
75050;SDS011;63628;47.656;11.310;2023-07-13T11:30:59;7.35;;;2.47;;
75050;SDS011;63628;47.656;11.310;2023-07-13T11:33:29;3.53;;;2.30;;
75050;SDS011;63628;47.656;11.310;2023-07-13T11:36:16;3.92;;;2.40;;
75050;SDS011;63628;47.656;11.310;2023-07-13T11:38:50;4.13;;;2.00;;
75050;SDS011;63628;47.656;11.310;2023-07-13T11:41:30;3.17;;;2.05;;
75050;SDS011;63628;47.656;11.310;2023-07-13T11:44:10;4.00;;;2.03;;
75050;SDS011;63628;47.656;11.310;2023-07-13T11:46:43;3.35;;;2.10;;
75050;SDS011;63628;47.656;11.310;2023-07-13T11:49:13;3.15;;;1.70;;
75050;SDS011;63628;47.656;11.310;2023-07-13T11:51:42;5.00;;;2.45;;
75050;SDS011;63628;47.656;11.310;2023-07-13T11:54:15;3.38;;;2.47;;
75050;SDS011;63628;47.656;11.310;2023-07-13T11:56:49;4.00;;;2.20;;
75050;SDS011;63628;47.656;11.310;2023-07-13T11:59:16;4.20;;;1.80;;
75050;SDS011;63628;47.656;11.310;2023-07-13T12:01:45;2.85;;;1.63;;
75050;SDS011;63628;47.656;11.310;2023-07-13T12:04:20;4.15;;;2.05;;
75050;SDS011;63628;47.656;11.310;2023-07-13T12:06:54;3.42;;;1.90;;
75050;SDS011;63628;47.656;11.310;2023-07-13T12:09:25;2.00;;;1.60;;
75050;SDS011;63628;47.656;11.310;2023-07-13T12:11:54;3.20;;;1.85;;
75050;SDS011;63628;47.656;11.310;2023-07-13T12:14:23;3.85;;;2.60;;
75050;SDS011;63628;47.656;11.310;2023-07-13T12:16:51;1.67;;;1.40;;
75050;SDS011;63628;47.656;11.310;2023-07-13T12:19:20;2.30;;;2.00;;
75050;SDS011;63628;47.656;11.310;2023-07-13T12:21:48;4.78;;;2.25;;
75050;SDS011;63628;47.656;11.310;2023-07-13T12:24:15;3.42;;;2.00;;
75050;SDS011;63628;47.656;11.310;2023-07-13T12:26:48;3.77;;;1.83;;
75050;SDS011;63628;47.656;11.310;2023-07-13T12:29:18;3.60;;;2.10;;
75050;SDS011;63628;47.656;11.310;2023-07-13T12:31:45;3.25;;;1.90;;
75050;SDS011;63628;47.656;11.310;2023-07-13T12:34:14;2.30;;;1.73;;
75050;SDS011;63628;47.656;11.310;2023-07-13T12:36:45;3.05;;;1.27;;
75050;SDS011;63628;47.656;11.310;2023-07-13T12:39:16;3.20;;;1.45;;
75050;SDS011;63628;47.656;11.310;2023-07-13T12:41:47;1.90;;;1.50;;
75050;SDS011;63628;47.656;11.310;2023-07-13T12:44:15;3.60;;;1.85;;
75050;SDS011;63628;47.656;11.310;2023-07-13T12:46:52;4.10;;;2.30;;
75050;SDS011;63628;47.656;11.310;2023-07-13T12:49:29;1.77;;;1.40;;
75050;SDS011;63628;47.656;11.310;2023-07-13T12:52:02;2.10;;;1.25;;
75050;SDS011;63628;47.656;11.310;2023-07-13T12:54:30;3.08;;;1.58;;
75050;SDS011;63628;47.656;11.310;2023-07-13T12:57:03;1.30;;;1.20;;
75050;SDS011;63628;47.656;11.310;2023-07-13T12:59:31;1.60;;;1.25;;
75050;SDS011;63628;47.656;11.310;2023-07-13T13:01:59;3.70;;;1.42;;
75050;SDS011;63628;47.656;11.310;2023-07-13T13:04:27;3.20;;;1.65;;
75050;SDS011;63628;47.656;11.310;2023-07-13T13:07:00;3.50;;;1.40;;
75050;SDS011;63628;47.656;11.310;2023-07-13T13:09:28;4.32;;;1.20;;
75050;SDS011;63628;47.656;11.310;2023-07-13T13:11:55;3.63;;;1.52;;
75050;SDS011;63628;47.656;11.310;2023-07-13T13:14:23;1.88;;;1.30;;
75050;SDS011;63628;47.656;11.310;2023-07-13T13:16:50;3.53;;;1.70;;
75050;SDS011;63628;47.656;11.310;2023-07-13T13:19:20;4.05;;;2.10;;
75050;SDS011;63628;47.656;11.310;2023-07-13T13:21:50;3.85;;;1.80;;
75050;SDS011;63628;47.656;11.310;2023-07-13T13:24:19;3.38;;;1.17;;
75050;SDS011;63628;47.656;11.310;2023-07-13T13:26:51;1.63;;;1.10;;
75050;SDS011;63628;47.656;11.310;2023-07-13T13:29:19;2.80;;;1.20;;
75050;SDS011;63628;47.656;11.310;2023-07-13T13:31:48;1.15;;;1.05;;
75050;SDS011;63628;47.656;11.310;2023-07-13T13:34:16;3.03;;;1.10;;
75050;SDS011;63628;47.656;11.310;2023-07-13T13:36:44;1.58;;;0.90;;
75050;SDS011;63628;47.656;11.310;2023-07-13T13:39:18;1.88;;;1.00;;
75050;SDS011;63628;47.656;11.310;2023-07-13T13:41:47;3.17;;;1.33;;
75050;SDS011;63628;47.656;11.310;2023-07-13T13:44:15;1.58;;;0.98;;
75050;SDS011;63628;47.656;11.310;2023-07-13T13:46:43;2.15;;;1.00;;
75050;SDS011;63628;47.656;11.310;2023-07-13T13:51:42;2.97;;;1.08;;
75050;SDS011;63628;47.656;11.310;2023-07-13T13:54:10;1.55;;;1.20;;
75050;SDS011;63628;47.656;11.310;2023-07-13T13:56:38;1.23;;;1.10;;
75050;SDS011;63628;47.656;11.310;2023-07-13T13:59:06;2.33;;;1.45;;
75050;SDS011;63628;47.656;11.310;2023-07-13T14:01:34;1.48;;;1.27;;
75050;SDS011;63628;47.656;11.310;2023-07-13T14:04:02;2.85;;;1.45;;
75050;SDS011;63628;47.656;11.310;2023-07-13T14:06:30;1.60;;;1.15;;
75050;SDS011;63628;47.656;11.310;2023-07-13T14:08:56;1.98;;;0.90;;
75050;SDS011;63628;47.656;11.310;2023-07-13T14:11:23;5.32;;;1.52;;
75050;SDS011;63628;47.656;11.310;2023-07-13T14:13:51;2.00;;;0.90;;
75050;SDS011;63628;47.656;11.310;2023-07-13T14:16:21;1.48;;;1.20;;
75050;SDS011;63628;47.656;11.310;2023-07-13T14:18:49;1.50;;;1.27;;
75050;SDS011;63628;47.656;11.310;2023-07-13T14:21:16;2.80;;;1.50;;
75050;SDS011;63628;47.656;11.310;2023-07-13T14:23:46;2.17;;;1.02;;
75050;SDS011;63628;47.656;11.310;2023-07-13T14:26:15;1.23;;;1.13;;
75050;SDS011;63628;47.656;11.310;2023-07-13T14:28:44;2.10;;;1.10;;
75050;SDS011;63628;47.656;11.310;2023-07-13T14:31:12;2.05;;;1.60;;
75050;SDS011;63628;47.656;11.310;2023-07-13T14:33:40;1.67;;;1.00;;
75050;SDS011;63628;47.656;11.310;2023-07-13T14:36:13;1.33;;;1.00;;
75050;SDS011;63628;47.656;11.310;2023-07-13T14:38:51;2.42;;;1.40;;
75050;SDS011;63628;47.656;11.310;2023-07-13T14:41:18;2.90;;;1.35;;
75050;SDS011;63628;47.656;11.310;2023-07-13T14:43:44;2.67;;;1.52;;
75050;SDS011;63628;47.656;11.310;2023-07-13T14:46:12;2.42;;;1.52;;
75050;SDS011;63628;47.656;11.310;2023-07-13T14:48:50;3.15;;;1.40;;
75050;SDS011;63628;47.656;11.310;2023-07-13T14:51:18;7.20;;;1.67;;
75050;SDS011;63628;47.656;11.310;2023-07-13T14:53:45;5.40;;;1.52;;
75050;SDS011;63628;47.656;11.310;2023-07-13T14:56:13;4.00;;;1.73;;
75050;SDS011;63628;47.656;11.310;2023-07-13T14:58:41;2.10;;;1.33;;
75050;SDS011;63628;47.656;11.310;2023-07-13T15:01:09;1.58;;;1.27;;